Time;durP1;ratioP1;P1;durP2;ratioP2;P2;SDS_P1;SDS_P2;PMS_P1;PMS_P2;Temp;Humidity;BMP_temperature;BMP_pressure;BME280_temperature;BME280_humidity;BME280_pressure;Samples;Min_cycle;Max_cycle;Signal;HPM_P1;HPM_P2
2022/02/13 00:02:33;;;;;;;15.60;6.90;;;;;;;;;;6244646;28;20049;-82
2022/02/13 00:05:35;;;;;;;17.83;7.20;;;;;;;;;;6289582;28;20042;-82
2022/02/13 00:08:36;;;;;;;14.30;6.63;;;;;;;;;;6289675;28;20051;-78
2022/02/13 00:11:49;;;;;;;11.57;6.70;;;;;;;;;;6252235;28;20057;-81
2022/02/13 00:14:51;;;;;;;14.88;6.88;;;;;;;;;;6280909;28;20036;-80
2022/02/13 00:17:52;;;;;;;17.60;7.10;;;;;;;;;;6265324;28;20132;-79
2022/02/13 00:20:57;;;;;;;17.63;7.60;;;;;;;;;;6265130;28;20700;-82
2022/02/13 00:23:59;;;;;;;14.63;6.78;;;;;;;;;;6282516;28;20064;-79
2022/02/13 00:27:00;;;;;;;13.63;5.60;;;;;;;;;;6256630;28;20049;-81
2022/02/13 00:30:07;;;;;;;10.15;5.55;;;;;;;;;;6237757;28;20788;-82
2022/02/13 00:33:09;;;;;;;10.80;5.75;;;;;;;;;;6252875;28;20076;-81
2022/02/13 00:36:11;;;;;;;16.75;6.70;;;;;;;;;;6289254;28;20109;-80
2022/02/13 00:39:12;;;;;;;19.25;7.82;;;;;;;;;;6264607;28;20038;-82
2022/02/13 00:42:14;;;;;;;12.85;6.35;;;;;;;;;;6240719;28;20458;-82
2022/02/13 00:45:16;;;;;;;14.23;6.50;;;;;;;;;;6304151;28;20131;-80
2022/02/13 00:48:17;;;;;;;12.77;5.47;;;;;;;;;;6260074;28;20075;-82
2022/02/13 00:51:19;;;;;;;16.67;5.88;;;;;;;;;;6242517;28;20334;-82
2022/02/13 00:54:21;;;;;;;12.20;5.75;;;;;;;;;;6270757;28;20038;-81
2022/02/13 00:57:22;;;;;;;16.00;5.97;;;;;;;;;;6244767;28;20124;-81
2022/02/13 01:00:25;;;;;;;11.77;6.28;;;;;;;;;;6249848;28;20050;-82
2022/02/13 01:03:27;;;;;;;18.73;7.18;;;;;;;;;;6268534;28;20064;-81
2022/02/13 01:06:29;;;;;;;18.05;7.18;;;;;;;;;;6293888;28;20043;-82
2022/02/13 01:09:30;;;;;;;13.57;5.43;;;;;;;;;;6292954;28;20108;-82
2022/02/13 01:12:32;;;;;;;16.95;6.93;;;;;;;;;;6283222;28;20512;-84
2022/02/13 01:15:33;;;;;;;12.93;6.72;;;;;;;;;;6295374;28;20135;-78
2022/02/13 01:18:35;;;;;;;15.00;6.32;;;;;;;;;;6289947;28;20163;-82
2022/02/13 01:21:37;;;;;;;14.63;6.90;;;;;;;;;;6294726;28;20054;-82
2022/02/13 01:24:38;;;;;;;13.90;6.80;;;;;;;;;;6257558;28;20040;-80
2022/02/13 01:27:40;;;;;;;14.32;6.47;;;;;;;;;;6271604;28;20033;-80
2022/02/13 01:30:41;;;;;;;13.65;6.07;;;;;;;;;;6276050;28;20051;-77
2022/02/13 01:33:44;;;;;;;15.52;6.03;;;;;;;;;;6274333;28;20394;-79
2022/02/13 01:36:47;;;;;;;13.77;5.40;;;;;;;;;;6285696;28;20055;-82
2022/02/13 01:39:49;;;;;;;21.27;7.15;;;;;;;;;;6285089;28;20530;-82
2022/02/13 01:42:50;;;;;;;14.05;6.47;;;;;;;;;;6266316;28;20052;-79
2022/02/13 01:45:52;;;;;;;11.43;6.05;;;;;;;;;;6261203;28;20094;-81
2022/02/13 01:48:54;;;;;;;13.82;6.35;;;;;;;;;;6266334;28;20052;-82
2022/02/13 01:51:58;;;;;;;17.38;7.65;;;;;;;;;;6266228;28;20170;-79
2022/02/13 01:55:01;;;;;;;13.48;5.85;;;;;;;;;;6266939;28;20453;-81
2022/02/13 01:58:03;;;;;;;10.75;5.80;;;;;;;;;;6243987;28;20057;-79
2022/02/13 02:01:05;;;;;;;10.77;5.43;;;;;;;;;;6243674;28;20037;-81
2022/02/13 02:04:07;;;;;;;12.23;5.72;;;;;;;;;;6267164;28;20051;-81
2022/02/13 02:07:08;;;;;;;13.27;5.78;;;;;;;;;;6249258;28;20120;-79
2022/02/13 02:10:11;;;;;;;14.18;6.32;;;;;;;;;;6257580;28;20155;-82
2022/02/13 02:13:13;;;;;;;12.50;5.75;;;;;;;;;;6258029;28;20088;-81
2022/02/13 02:16:14;;;;;;;12.98;6.20;;;;;;;;;;6263824;28;20050;-80
2022/02/13 02:19:18;;;;;;;12.68;5.60;;;;;;;;;;6243789;28;20042;-81
2022/02/13 02:22:19;;;;;;;10.45;5.78;;;;;;;;;;6240897;28;20091;-81
2022/02/13 02:25:21;;;;;;;13.05;5.82;;;;;;;;;;6271413;28;20041;-81
2022/02/13 02:28:23;;;;;;;10.27;5.25;;;;;;;;;;6258317;28;20140;-83
2022/02/13 02:31:24;;;;;;;14.00;5.70;;;;;;;;;;6257441;28;20037;-82
2022/02/13 02:34:26;;;;;;;12.02;5.03;;;;;;;;;;6275887;28;20040;-80
2022/02/13 02:37:28;;;;;;;12.52;5.55;;;;;;;;;;6261466;28;20071;-79
2022/02/13 02:40:29;;;;;;;13.93;5.68;;;;;;;;;;6258021;28;20042;-80
2022/02/13 02:43:31;;;;;;;11.23;5.35;;;;;;;;;;6278437;28;20076;-83
2022/02/13 02:46:33;;;;;;;15.60;5.80;;;;;;;;;;6264820;28;20037;-81
2022/02/13 02:49:34;;;;;;;13.00;5.43;;;;;;;;;;6268017;28;20101;-81
2022/02/13 02:52:36;;;;;;;13.90;5.93;;;;;;;;;;6268657;28;20059;-80
2022/02/13 02:55:38;;;;;;;16.55;6.03;;;;;;;;;;6268727;28;20041;-82
2022/02/13 02:58:40;;;;;;;14.52;6.57;;;;;;;;;;6248740;28;20045;-80
2022/02/13 03:01:41;;;;;;;11.80;5.60;;;;;;;;;;6247178;28;20097;-81
2022/02/13 03:04:43;;;;;;;18.45;6.40;;;;;;;;;;6267315;28;20064;-82
2022/02/13 03:07:45;;;;;;;12.55;5.70;;;;;;;;;;6254660;28;20060;-81
2022/02/13 03:10:47;;;;;;;16.52;6.38;;;;;;;;;;6272262;28;20084;-80
2022/02/13 03:13:49;;;;;;;11.33;5.77;;;;;;;;;;6281406;28;20179;-82
2022/02/13 03:16:51;;;;;;;12.93;5.45;;;;;;;;;;6272324;28;20439;-80
2022/02/13 03:19:52;;;;;;;14.48;5.35;;;;;;;;;;6270564;28;20048;-80
2022/02/13 03:22:54;;;;;;;12.52;5.15;;;;;;;;;;6266639;28;20048;-81
2022/02/13 03:25:56;;;;;;;10.88;5.32;;;;;;;;;;6281533;28;20581;-80
2022/02/13 03:28:57;;;;;;;12.05;5.18;;;;;;;;;;6272699;28;20057;-81
2022/02/13 03:31:59;;;;;;;11.95;5.78;;;;;;;;;;6270012;28;20159;-81
2022/02/13 03:35:01;;;;;;;14.00;5.75;;;;;;;;;;6270309;28;20128;-82
2022/02/13 03:38:03;;;;;;;10.38;4.63;;;;;;;;;;6253258;28;20179;-82
2022/02/13 03:41:05;;;;;;;15.68;5.75;;;;;;;;;;6285945;28;20045;-82
2022/02/13 03:44:08;;;;;;;14.45;5.65;;;;;;;;;;6289688;28;20122;-83
2022/02/13 03:47:10;;;;;;;13.93;5.47;;;;;;;;;;6262580;28;20048;-80
2022/02/13 03:50:13;;;;;;;10.82;5.13;;;;;;;;;;6247530;28;20084;-81
2022/02/13 03:53:15;;;;;;;13.25;4.90;;;;;;;;;;6276551;28;20071;-80
2022/02/13 03:56:16;;;;;;;9.43;5.30;;;;;;;;;;6278890;28;20045;-83
2022/02/13 03:59:18;;;;;;;13.40;5.22;;;;;;;;;;6244713;28;20068;-79
2022/02/13 04:02:20;;;;;;;18.77;6.18;;;;;;;;;;6246900;28;20101;-79
2022/02/13 04:05:23;;;;;;;15.90;5.78;;;;;;;;;;6260021;28;20102;-78
2022/02/13 04:08:24;;;;;;;;;;;;;;;;;;6264519;28;20571;-79
2022/02/13 04:11:26;;;;;;;11.13;5.13;;;;;;;;;;6266819;28;19905;-80
2022/02/13 04:14:28;;;;;;;9.25;4.55;;;;;;;;;;6300838;28;20088;-80
2022/02/13 04:17:30;;;;;;;11.20;5.30;;;;;;;;;;6283376;28;20033;-79
2022/02/13 04:20:31;;;;;;;13.70;5.80;;;;;;;;;;6266695;28;20052;-80
2022/02/13 04:23:33;;;;;;;12.60;5.78;;;;;;;;;;6282899;28;20070;-80
2022/02/13 04:26:35;;;;;;;14.88;6.22;;;;;;;;;;6263128;28;20101;-82
2022/02/13 04:29:36;;;;;;;17.17;6.57;;;;;;;;;;6259698;28;20319;-79
2022/02/13 04:32:38;;;;;;;13.35;5.55;;;;;;;;;;6266522;28;20103;-79
2022/02/13 04:35:40;;;;;;;16.35;5.80;;;;;;;;;;6308655;28;20121;-80
2022/02/13 04:38:42;;;;;;;8.93;4.97;;;;;;;;;;6291651;28;20048;-83
2022/02/13 04:41:43;;;;;;;10.35;5.20;;;;;;;;;;6249049;28;20575;-80
2022/02/13 04:44:45;;;;;;;13.65;5.57;;;;;;;;;;6267389;28;20678;-82
2022/02/13 04:47:48;;;;;;;14.90;5.88;;;;;;;;;;6268627;28;20104;-82
2022/02/13 04:50:50;;;;;;;19.20;7.80;;;;;;;;;;6275678;28;20922;-79
2022/02/13 04:53:51;;;;;;;14.80;6.07;;;;;;;;;;6272727;28;20044;-82
2022/02/13 04:56:53;;;;;;;18.33;6.97;;;;;;;;;;6269521;28;20049;-81
2022/02/13 04:59:55;;;;;;;13.10;6.03;;;;;;;;;;6271529;28;20100;-82
2022/02/13 05:02:57;;;;;;;15.60;6.07;;;;;;;;;;6259831;28;20060;-80
2022/02/13 05:05:58;;;;;;;13.13;6.35;;;;;;;;;;6296382;28;20044;-82
2022/02/13 05:09:00;;;;;;;12.68;6.32;;;;;;;;;;6296939;28;20044;-83
2022/02/13 05:12:02;;;;;;;12.88;6.10;;;;;;;;;;6268835;28;20604;-82
2022/02/13 05:15:04;;;;;;;12.90;5.93;;;;;;;;;;6290682;28;20044;-83
2022/02/13 05:18:08;;;;;;;12.23;5.30;;;;;;;;;;6264091;28;20053;-83
2022/02/13 05:21:09;;;;;;;12.98;5.10;;;;;;;;;;6245226;28;20081;-81
2022/02/13 05:24:11;;;;;;;11.38;5.07;;;;;;;;;;6261057;28;20132;-83
2022/02/13 05:27:13;;;;;;;9.30;4.95;;;;;;;;;;6268750;28;20096;-82
2022/02/13 05:30:14;;;;;;;11.77;5.28;;;;;;;;;;6251998;28;20120;-83
2022/02/13 05:33:16;;;;;;;11.20;5.40;;;;;;;;;;6253679;28;20053;-81
2022/02/13 05:36:18;;;;;;;20.30;8.05;;;;;;;;;;6269873;28;20040;-84
2022/02/13 05:39:19;;;;;;;47.60;15.15;;;;;;;;;;6260721;28;20120;-83
2022/02/13 05:42:23;;;;;;;16.75;7.07;;;;;;;;;;6243821;28;20049;-83
2022/02/13 05:45:25;;;;;;;15.13;7.13;;;;;;;;;;6260800;28;20069;-80
2022/02/13 05:48:26;;;;;;;18.23;7.55;;;;;;;;;;6265190;28;20056;-80
2022/02/13 05:51:28;;;;;;;17.05;6.95;;;;;;;;;;6271329;28;20082;-83
2022/02/13 05:54:29;;;;;;;14.98;6.35;;;;;;;;;;6276533;28;20041;-83
2022/02/13 05:57:31;;;;;;;16.38;6.82;;;;;;;;;;6282992;28;20048;-83
2022/02/13 06:00:33;;;;;;;19.00;8.57;;;;;;;;;;6296215;28;20645;-85
2022/02/13 06:03:35;;;;;;;25.25;9.07;;;;;;;;;;6269724;28;20047;-81
2022/02/13 06:06:37;;;;;;;14.73;6.45;;;;;;;;;;6270376;28;20072;-80
2022/02/13 06:09:38;;;;;;;13.40;5.30;;;;;;;;;;6265373;28;20068;-80
2022/02/13 06:12:41;;;;;;;15.80;6.90;;;;;;;;;;6248030;28;20079;-83
2022/02/13 06:15:42;;;;;;;16.03;6.20;;;;;;;;;;6254688;28;20120;-80
2022/02/13 06:18:44;;;;;;;16.10;5.68;;;;;;;;;;6261660;28;20432;-82
2022/02/13 06:21:46;;;;;;;13.38;5.50;;;;;;;;;;6245294;28;20063;-80
2022/02/13 06:24:47;;;;;;;16.42;7.22;;;;;;;;;;6255736;28;20045;-80
2022/02/13 06:27:49;;;;;;;13.48;7.20;;;;;;;;;;6249114;28;20124;-80
2022/02/13 06:30:53;;;;;;;14.13;6.90;;;;;;;;;;6253230;28;20061;-82
2022/02/13 06:33:55;;;;;;;13.93;6.00;;;;;;;;;;6288772;28;20352;-83
2022/02/13 06:36:57;;;;;;;14.02;6.68;;;;;;;;;;6301702;28;20107;-83
2022/02/13 06:39:59;;;;;;;13.88;6.60;;;;;;;;;;6274676;28;20545;-79
2022/02/13 06:43:00;;;;;;;14.60;6.78;;;;;;;;;;6263509;28;20094;-82
2022/02/13 06:46:02;;;;;;;18.30;7.22;;;;;;;;;;6277284;28;20103;-79
2022/02/13 06:49:04;;;;;;;15.75;8.18;;;;;;;;;;6275033;28;20041;-80
2022/02/13 06:52:06;;;;;;;18.98;7.60;;;;;;;;;;6273574;28;20049;-83
2022/02/13 06:55:08;;;;;;;15.23;7.32;;;;;;;;;;6277930;28;21463;-77
2022/02/13 06:58:10;;;;;;;18.08;7.68;;;;;;;;;;6250056;28;20152;-78
2022/02/13 07:01:14;;;;;;;15.75;7.68;;;;;;;;;;6251556;28;20081;-79
2022/02/13 07:04:15;;;;;;;15.85;8.27;;;;;;;;;;6290187;28;20040;-80
2022/02/13 07:07:17;;;;;;;20.52;8.43;;;;;;;;;;6302044;28;20060;-79
2022/02/13 07:10:19;;;;;;;23.13;10.90;;;;;;;;;;6263672;28;20049;-82
2022/02/13 07:13:21;;;;;;;23.67;10.80;;;;;;;;;;6270043;28;20109;-82
2022/02/13 07:16:22;;;;;;;40.13;15.70;;;;;;;;;;6269309;28;20076;-83
2022/02/13 07:19:24;;;;;;;20.25;8.15;;;;;;;;;;6249971;28;20087;-81
2022/02/13 07:22:26;;;;;;;16.10;8.13;;;;;;;;;;6257928;28;20493;-83
2022/02/13 07:25:27;;;;;;;13.95;6.30;;;;;;;;;;6275796;28;20117;-80
2022/02/13 07:31:49;;;;;;;14.93;7.55;;;;;;;;;;6267025;28;20064;-81
2022/02/13 07:34:50;;;;;;;16.75;8.25;;;;;;;;;;6272981;28;20065;-82
2022/02/13 07:37:52;;;;;;;22.38;12.02;;;;;;;;;;6275949;28;20044;-81
2022/02/13 07:40:54;;;;;;;23.23;12.70;;;;;;;;;;6256806;28;20068;-80
2022/02/13 07:43:56;;;;;;;23.60;11.93;;;;;;;;;;6272683;28;20104;-80
2022/02/13 07:46:57;;;;;;;22.27;10.10;;;;;;;;;;6276766;28;20041;-80
2022/02/13 07:50:00;;;;;;;16.45;9.50;;;;;;;;;;6245066;28;20063;-82
2022/02/13 07:53:01;;;;;;;17.70;9.40;;;;;;;;;;6255403;28;20140;-79
2022/02/13 07:56:04;;;;;;;26.08;13.02;;;;;;;;;;6289239;28;20073;-83
2022/02/13 07:59:06;;;;;;;18.98;10.85;;;;;;;;;;6252440;28;20184;-81
2022/02/13 08:02:07;;;;;;;22.30;10.93;;;;;;;;;;6258784;28;20056;-78
2022/02/13 08:05:09;;;;;;;23.27;11.10;;;;;;;;;;6273025;28;20048;-80
2022/02/13 08:08:11;;;;;;;48.28;26.40;;;;;;;;;;6274707;28;20107;-83
2022/02/13 08:11:13;;;;;;;18.33;10.25;;;;;;;;;;6274105;28;20059;-82
2022/02/13 08:14:15;;;;;;;20.13;9.60;;;;;;;;;;6273772;28;20662;-83
2022/02/13 08:17:17;;;;;;;17.50;8.52;;;;;;;;;;6263217;28;20478;-83
2022/02/13 08:20:20;;;;;;;21.65;9.52;;;;;;;;;;6249139;28;20060;-82
2022/02/13 08:23:22;;;;;;;18.58;9.73;;;;;;;;;;6270119;28;20041;-83
2022/02/13 08:26:24;;;;;;;24.65;11.15;;;;;;;;;;6276416;28;20101;-83
2022/02/13 08:29:26;;;;;;;22.63;10.90;;;;;;;;;;6274088;28;20076;-83
2022/02/13 08:32:28;;;;;;;20.55;9.38;;;;;;;;;;6266933;28;20541;-84
2022/02/13 08:35:29;;;;;;;21.35;10.07;;;;;;;;;;6300230;28;20131;-83
2022/02/13 08:38:31;;;;;;;20.67;11.13;;;;;;;;;;6293212;28;20502;-82
2022/02/13 08:41:33;;;;;;;18.70;10.32;;;;;;;;;;6264842;28;20042;-81
2022/02/13 08:44:34;;;;;;;16.35;8.07;;;;;;;;;;6280829;28;20440;-83
2022/02/13 08:47:36;;;;;;;17.92;9.73;;;;;;;;;;6271726;28;20069;-82
2022/02/13 08:50:39;;;;;;;19.85;10.48;;;;;;;;;;6265478;28;20053;-83
2022/02/13 08:53:41;;;;;;;16.77;9.35;;;;;;;;;;6282140;28;20045;-84
2022/02/13 08:56:43;;;;;;;17.45;10.88;;;;;;;;;;6271562;28;20037;-83
2022/02/13 08:59:44;;;;;;;22.77;10.63;;;;;;;;;;6271265;28;20702;-83
2022/02/13 09:02:46;;;;;;;19.23;9.73;;;;;;;;;;6269213;28;20106;-83
2022/02/13 09:05:48;;;;;;;22.02;10.63;;;;;;;;;;6267879;28;20090;-83
2022/02/13 09:08:51;;;;;;;24.13;12.20;;;;;;;;;;6269784;28;20588;-82
2022/02/13 09:11:52;;;;;;;19.15;11.05;;;;;;;;;;6256876;28;20452;-80
2022/02/13 09:14:54;;;;;;;19.52;11.00;;;;;;;;;;6269954;28;20170;-82
2022/02/13 09:17:56;;;;;;;18.35;10.05;;;;;;;;;;6255687;28;20449;-80
2022/02/13 09:20:57;;;;;;;19.75;11.18;;;;;;;;;;6248603;28;20108;-82
2022/02/13 09:23:59;;;;;;;26.02;15.73;;;;;;;;;;6266447;28;20052;-80
2022/02/13 09:27:01;;;;;;;19.35;11.15;;;;;;;;;;6272974;28;20068;-80
2022/02/13 09:30:04;;;;;;;19.02;10.88;;;;;;;;;;6269154;28;20051;-80
2022/02/13 09:33:07;;;;;;;18.85;11.35;;;;;;;;;;6255156;28;20072;-81
2022/02/13 09:36:08;;;;;;;17.90;10.13;;;;;;;;;;6254542;28;20048;-82
2022/02/13 09:39:10;;;;;;;17.95;9.45;;;;;;;;;;6253043;28;20058;-86
2022/02/13 09:42:13;;;;;;;15.50;8.77;;;;;;;;;;6267203;28;20108;-84
2022/02/13 09:45:14;;;;;;;15.30;8.40;;;;;;;;;;6278604;28;20036;-84
2022/02/13 09:48:18;;;;;;;15.25;8.23;;;;;;;;;;6256233;28;20041;-85
2022/02/13 09:51:19;;;;;;;17.15;8.93;;;;;;;;;;6258439;28;20057;-84
2022/02/13 09:54:21;;;;;;;12.18;6.78;;;;;;;;;;6277317;28;20341;-84
2022/02/13 10:00:59;;;;;;;17.80;10.07;;;;;;;;;;6270229;28;20117;-84
2022/02/13 10:04:01;;;;;;;17.55;9.50;;;;;;;;;;6251931;28;20107;-85
2022/02/13 10:07:16;;;;;;;14.48;8.27;;;;;;;;;;6254303;28;20037;-84
2022/02/13 10:10:17;;;;;;;15.00;8.52;;;;;;;;;;6254268;28;20046;-85
2022/02/13 10:13:19;;;;;;;12.90;8.27;;;;;;;;;;6302821;28;20045;-83
2022/02/13 10:16:31;;;;;;;12.00;7.03;;;;;;;;;;6289950;28;20103;-83
2022/02/13 10:19:33;;;;;;;12.68;6.90;;;;;;;;;;6254294;28;20616;-85
2022/02/13 10:22:36;;;;;;;12.32;6.32;;;;;;;;;;6288310;28;20594;-84
2022/02/13 10:25:39;;;;;;;10.50;6.90;;;;;;;;;;6263625;28;20115;-84
2022/02/13 10:28:54;;;;;;;9.63;5.97;;;;;;;;;;6258342;28;20061;-85
2022/02/13 10:32:11;;;;;;;12.25;6.95;;;;;;;;;;6271794;28;20100;-86
2022/02/13 10:35:15;;;;;;;14.63;6.55;;;;;;;;;;6252537;28;20053;-84
2022/02/13 10:38:17;;;;;;;9.85;6.50;;;;;;;;;;6253504;28;20057;-85
2022/02/13 10:41:27;;;;;;;11.73;7.65;;;;;;;;;;6253069;28;20045;-85
2022/02/13 10:44:30;;;;;;;13.52;7.07;;;;;;;;;;6236470;28;20056;-84
2022/02/13 10:47:33;;;;;;;11.85;6.50;;;;;;;;;;6270485;28;20067;-86
2022/02/13 10:50:37;;;;;;;12.32;7.28;;;;;;;;;;6277600;28;20061;-84
2022/02/13 10:53:43;;;;;;;13.07;7.78;;;;;;;;;;6301474;28;20048;-84
2022/02/13 10:56:45;;;;;;;10.75;6.75;;;;;;;;;;6277598;28;20057;-84
2022/02/13 10:59:46;;;;;;;12.90;7.63;;;;;;;;;;6251220;28;20064;-84
2022/02/13 11:02:49;;;;;;;12.68;7.40;;;;;;;;;;6253870;28;20132;-83
2022/02/13 11:05:53;;;;;;;11.13;6.80;;;;;;;;;;6273928;28;20536;-84
2022/02/13 11:09:20;;;;;;;13.98;7.90;;;;;;;;;;6271957;28;20704;-83
2022/02/13 11:12:23;;;;;;;11.23;7.30;;;;;;;;;;6253236;28;20103;-85
2022/02/13 11:15:30;;;;;;;9.55;6.88;;;;;;;;;;6249811;28;20071;-83
2022/02/13 11:18:34;;;;;;;12.98;7.43;;;;;;;;;;6287046;28;20412;-82
2022/02/13 11:21:36;;;;;;;12.35;7.18;;;;;;;;;;6282229;28;20131;-82
2022/02/13 11:24:48;;;;;;;14.07;7.17;;;;;;;;;;6275814;28;20119;-83
2022/02/13 11:27:57;;;;;;;16.00;7.32;;;;;;;;;;6230823;28;20084;-80
2022/02/13 11:30:59;;;;;;;10.98;7.90;;;;;;;;;;6230252;28;20539;-82
2022/02/13 11:34:01;;;;;;;16.48;8.13;;;;;;;;;;6247244;28;20042;-81
2022/02/13 11:37:10;;;;;;;14.73;7.55;;;;;;;;;;6246633;28;20637;-83
2022/02/13 11:40:34;;;;;;;15.48;7.65;;;;;;;;;;6260898;28;20065;-83
2022/02/13 11:43:45;;;;;;;12.15;8.07;;;;;;;;;;6220674;28;20125;-84
2022/02/13 11:46:49;;;;;;;19.48;11.48;;;;;;;;;;6254765;28;20045;-83
2022/02/13 11:50:03;;;;;;;13.68;7.88;;;;;;;;;;6271459;28;20045;-85
2022/02/13 11:53:06;;;;;;;12.93;7.80;;;;;;;;;;6270275;28;20076;-82
2022/02/13 11:56:20;;;;;;;10.52;7.72;;;;;;;;;;6261867;28;20037;-83
2022/02/13 11:59:48;;;;;;;13.43;7.63;;;;;;;;;;6251311;28;20049;-82
2022/02/13 12:02:50;;;;;;;12.45;7.70;;;;;;;;;;6244541;28;20041;-84
2022/02/13 12:06:11;;;;;;;13.55;8.40;;;;;;;;;;6223907;28;20479;-85
2022/02/13 12:09:13;;;;;;;15.10;8.57;;;;;;;;;;6233393;28;20057;-84
2022/02/13 12:12:24;;;;;;;13.55;7.82;;;;;;;;;;6231535;28;20108;-82
2022/02/13 12:15:25;;;;;;;14.52;7.32;;;;;;;;;;6238899;28;20046;-85
2022/02/13 12:18:27;;;;;;;11.80;7.63;;;;;;;;;;6230213;28;20694;-84
2022/02/13 12:21:29;;;;;;;14.13;7.45;;;;;;;;;;6235947;28;20441;-85
2022/02/13 12:24:32;;;;;;;15.63;7.63;;;;;;;;;;6240609;28;20204;-84
2022/02/13 12:27:34;;;;;;;14.93;7.90;;;;;;;;;;6243027;28;20037;-83
2022/02/13 12:30:37;;;;;;;12.27;7.75;;;;;;;;;;6218249;28;20038;-83
2022/02/13 12:33:43;;;;;;;14.23;8.85;;;;;;;;;;6232419;28;20092;-83
2022/02/13 12:36:53;;;;;;;15.40;7.82;;;;;;;;;;6233185;28;20065;-84
2022/02/13 12:39:55;;;;;;;12.98;7.53;;;;;;;;;;6237407;28;20104;-83
2022/02/13 12:43:06;;;;;;;14.65;8.55;;;;;;;;;;6230177;28;20068;-84
2022/02/13 12:46:10;;;;;;;;;;;;;;;;;;6241081;28;20575;-83
2022/02/13 12:49:12;;;;;;;9.32;6.18;;;;;;;;;;6236208;28;20015;-83
2022/02/13 12:52:13;;;;;;;15.10;7.72;;;;;;;;;;6247791;28;20104;-82
2022/02/13 12:55:18;;;;;;;15.27;9.15;;;;;;;;;;6242294;28;20052;-82
2022/02/13 12:58:19;;;;;;;13.13;8.23;;;;;;;;;;6254718;28;20104;-82
2022/02/13 13:01:32;;;;;;;12.23;7.47;;;;;;;;;;6235823;28;20703;-83
2022/02/13 13:04:33;;;;;;;14.82;8.02;;;;;;;;;;6232285;28;20054;-82
2022/02/13 13:07:35;;;;;;;14.90;6.93;;;;;;;;;;6232615;28;20092;-82
2022/02/13 13:11:03;;;;;;;14.68;7.93;;;;;;;;;;6233965;28;20129;-84
2022/02/13 13:14:07;;;;;;;11.20;6.93;;;;;;;;;;6255023;28;20506;-82
2022/02/13 13:17:09;;;;;;;12.82;6.70;;;;;;;;;;6228154;28;20040;-84
2022/02/13 13:20:22;;;;;;;11.52;6.50;;;;;;;;;;6210594;28;20060;-82
2022/02/13 13:23:24;;;;;;;14.95;7.00;;;;;;;;;;6235613;28;20049;-83
2022/02/13 13:26:31;;;;;;;9.98;6.55;;;;;;;;;;6233227;28;20516;-83
2022/02/13 13:29:38;;;;;;;11.75;7.28;;;;;;;;;;6237840;28;20206;-84
2022/02/13 13:32:40;;;;;;;14.52;7.35;;;;;;;;;;6217320;28;20491;-83
2022/02/13 13:35:42;;;;;;;10.35;6.63;;;;;;;;;;6210592;28;20099;-82
2022/02/13 13:38:45;;;;;;;14.63;7.85;;;;;;;;;;6212228;28;20125;-80
2022/02/13 13:41:46;;;;;;;13.07;6.90;;;;;;;;;;6223137;28;20112;-82
2022/02/13 13:44:48;;;;;;;11.40;6.82;;;;;;;;;;6227925;28;20041;-81
2022/02/13 13:47:51;;;;;;;12.23;6.53;;;;;;;;;;6214003;28;20183;-81
2022/02/13 13:50:53;;;;;;;;;;;;;;;;;;6230433;28;20184;-82
2022/02/13 13:53:54;;;;;;;19.38;8.90;;;;;;;;;;6226753;28;20583;-82
2022/02/13 13:56:56;;;;;;;16.02;7.32;;;;;;;;;;6228496;28;20054;-81
2022/02/13 13:59:58;;;;;;;11.82;6.55;;;;;;;;;;6225751;28;20122;-82
2022/02/13 14:03:01;;;;;;;12.60;6.85;;;;;;;;;;6230239;28;20103;-84
2022/02/13 14:06:02;;;;;;;15.05;7.28;;;;;;;;;;6255612;28;20139;-82
2022/02/13 14:09:04;;;;;;;13.68;6.90;;;;;;;;;;6231892;28;20116;-81
2022/02/13 14:12:07;;;;;;;21.17;11.07;;;;;;;;;;6246752;28;20064;-82
2022/02/13 14:15:10;;;;;;;12.15;6.95;;;;;;;;;;6269215;28;20056;-82
2022/02/13 14:18:11;;;;;;;20.13;11.88;;;;;;;;;;6217952;28;20067;-83
2022/02/13 14:21:15;;;;;;;14.32;6.78;;;;;;;;;;6225490;28;20530;-81
2022/02/13 14:24:16;;;;;;;;;;;;;;;;;;6227712;28;20100;-82
2022/02/13 14:27:18;;;;;;;15.48;7.57;;;;;;;;;;6222551;28;19956;-83
2022/02/13 14:30:20;;;;;;;16.52;9.73;;;;;;;;;;6240359;28;20045;-82
2022/02/13 14:33:22;;;;;;;25.55;12.73;;;;;;;;;;6234826;28;20045;-81
2022/02/13 14:36:23;;;;;;;19.30;10.43;;;;;;;;;;6233794;28;20113;-82
2022/02/13 14:39:25;;;;;;;19.95;10.07;;;;;;;;;;6232004;28;20056;-82
2022/02/13 14:42:28;;;;;;;9.85;5.80;;;;;;;;;;6252643;28;20037;-82
2022/02/13 14:45:29;;;;;;;15.03;8.63;;;;;;;;;;6251558;28;20049;-81
2022/02/13 14:48:31;;;;;;;14.85;7.30;;;;;;;;;;6239470;28;20136;-83
2022/02/13 14:51:35;;;;;;;13.68;7.50;;;;;;;;;;6241167;28;20071;-81
2022/02/13 14:54:37;;;;;;;13.37;7.33;;;;;;;;;;6258974;28;20049;-82
2022/02/13 14:57:39;;;;;;;13.30;7.20;;;;;;;;;;6249271;28;20512;-84
2022/02/13 15:00:41;;;;;;;12.93;6.88;;;;;;;;;;6252589;28;20041;-82
2022/02/13 15:03:44;;;;;;;14.50;7.68;;;;;;;;;;6261581;28;20041;-85
2022/02/13 15:06:45;;;;;;;13.93;7.25;;;;;;;;;;6241015;28;20060;-83
2022/02/13 15:09:47;;;;;;;14.18;7.00;;;;;;;;;;6267077;28;20112;-84
2022/02/13 15:12:49;;;;;;;12.98;6.93;;;;;;;;;;6239339;28;20038;-82
2022/02/13 15:16:10;;;;;;;13.65;7.18;;;;;;;;;;6238244;28;20060;-83
2022/02/13 15:19:12;;;;;;;12.73;7.13;;;;;;;;;;6247667;28;20128;-82
2022/02/13 15:22:16;;;;;;;12.73;7.40;;;;;;;;;;6268359;28;20041;-83
2022/02/13 15:25:18;;;;;;;14.88;8.07;;;;;;;;;;6244765;28;20045;-82
2022/02/13 15:28:19;;;;;;;14.95;7.40;;;;;;;;;;6245080;28;20180;-84
2022/02/13 15:31:21;;;;;;;21.40;8.57;;;;;;;;;;6244702;28;20044;-84
2022/02/13 15:34:23;;;;;;;21.13;10.00;;;;;;;;;;6245063;28;20139;-82
2022/02/13 15:37:24;;;;;;;30.67;13.27;;;;;;;;;;6269151;28;20049;-81
2022/02/13 15:40:29;;;;;;;32.55;13.00;;;;;;;;;;6285761;28;20041;-83
2022/02/13 15:43:30;;;;;;;14.73;8.35;;;;;;;;;;6219840;28;20118;-82
2022/02/13 15:46:32;;;;;;;18.77;8.50;;;;;;;;;;6241489;28;20040;-83
2022/02/13 15:49:34;;;;;;;22.40;11.95;;;;;;;;;;6261827;28;20071;-83
2022/02/13 15:52:35;;;;;;;16.70;8.27;;;;;;;;;;6264633;28;20445;-84
2022/02/13 15:55:38;;;;;;;16.63;7.03;;;;;;;;;;6266815;28;20040;-83
2022/02/13 15:58:40;;;;;;;18.88;9.45;;;;;;;;;;6266808;28;20060;-84
2022/02/13 16:01:41;;;;;;;18.17;8.90;;;;;;;;;;6253064;28;20046;-83
2022/02/13 16:04:43;;;;;;;15.52;8.32;;;;;;;;;;6251163;28;20029;-82
2022/02/13 16:07:46;;;;;;;17.23;8.18;;;;;;;;;;6231248;28;20065;-82
2022/02/13 16:10:48;;;;;;;;;;;;;;;;;;6251240;28;20589;-83
2022/02/13 16:13:49;;;;;;;15.73;9.07;;;;;;;;;;6256644;28;19921;-84
2022/02/13 16:16:57;;;;;;;19.73;9.85;;;;;;;;;;6253496;28;20092;-82
2022/02/13 16:19:59;;;;;;;15.63;8.93;;;;;;;;;;6253297;28;20129;-82
2022/02/13 16:24:02;;;;;;;18.17;8.33;;;;;;;;;;6266474;28;20075;-84
2022/02/13 16:26:23;;;;;;;50.88;27.60;;;;;;;;;;6245042;28;20064;-82
2022/02/13 16:29:28;;;;;;;23.53;10.83;;;;;;;;;;6271167;28;20579;-83
2022/02/13 16:32:30;;;;;;;28.85;17.40;;;;;;;;;;6236329;28;20046;-83
2022/02/13 16:35:31;;;;;;;22.45;13.05;;;;;;;;;;6221545;28;20046;-82
2022/02/13 16:38:33;;;;;;;27.23;10.73;;;;;;;;;;6218843;28;20048;-82
2022/02/13 16:41:34;;;;;;;17.63;8.80;;;;;;;;;;6238732;28;20391;-84
2022/02/13 16:44:36;;;;;;;16.85;9.25;;;;;;;;;;6254903;28;20056;-83
2022/02/13 16:47:38;;;;;;;24.52;13.23;;;;;;;;;;6229401;28;20042;-83
2022/02/13 16:50:40;;;;;;;20.67;11.13;;;;;;;;;;6238901;28;20042;-82
2022/02/13 16:53:49;;;;;;;17.75;9.25;;;;;;;;;;6267438;28;20048;-83
2022/02/13 16:56:51;;;;;;;17.48;8.70;;;;;;;;;;6251663;28;20121;-83
2022/02/13 16:59:52;;;;;;;55.22;19.67;;;;;;;;;;6234417;28;20050;-82
2022/02/13 17:02:55;;;;;;;30.60;13.60;;;;;;;;;;6231936;28;20072;-82
2022/02/13 17:05:58;;;;;;;34.15;13.95;;;;;;;;;;6248954;28;20120;-82
2022/02/13 17:09:01;;;;;;;27.33;11.80;;;;;;;;;;6242205;28;20049;-80
2022/02/13 17:12:04;;;;;;;19.13;11.02;;;;;;;;;;6251295;28;20052;-82
2022/02/13 17:15:08;;;;;;;19.70;10.18;;;;;;;;;;6265556;28;20128;-80
2022/02/13 17:18:09;;;;;;;23.23;11.55;;;;;;;;;;6242178;28;20060;-83
2022/02/13 17:21:12;;;;;;;26.55;17.95;;;;;;;;;;6253445;28;20045;-82
2022/02/13 17:24:15;;;;;;;29.30;17.52;;;;;;;;;;6240918;28;20118;-83
2022/02/13 17:27:16;;;;;;;36.65;22.25;;;;;;;;;;6251533;28;20051;-82
2022/02/13 17:30:18;;;;;;;41.47;21.38;;;;;;;;;;6280635;28;20041;-83
2022/02/13 17:33:20;;;;;;;80.50;37.72;;;;;;;;;;6241154;28;20048;-82
2022/02/13 17:36:24;;;;;;;33.53;19.88;;;;;;;;;;6241019;28;20060;-82
2022/02/13 17:39:34;;;;;;;41.92;26.05;;;;;;;;;;6241505;28;20049;-82
2022/02/13 17:42:37;;;;;;;39.38;23.30;;;;;;;;;;6239275;28;20180;-82
2022/02/13 17:45:38;;;;;;;51.92;28.02;;;;;;;;;;6243512;28;20048;-81
2022/02/13 17:48:40;;;;;;;52.67;28.33;;;;;;;;;;6252010;28;20038;-80
2022/02/13 17:51:42;;;;;;;44.05;22.33;;;;;;;;;;6254540;28;20097;-81
2022/02/13 17:54:44;;;;;;;23.27;13.48;;;;;;;;;;6239734;28;20044;-83
2022/02/13 17:57:48;;;;;;;22.73;10.38;;;;;;;;;;6216361;28;20132;-81
2022/02/13 18:00:49;;;;;;;22.15;12.68;;;;;;;;;;6217063;28;20042;-82
2022/02/13 18:03:51;;;;;;;22.80;12.77;;;;;;;;;;6240968;28;20378;-82
2022/02/13 18:07:05;;;;;;;22.70;10.77;;;;;;;;;;6260977;28;20037;-82